Aviation Digital Data Service (ADDS)

Output produced by TAFs form (0004 UTC 23 December 2014)
found at http://aviationweather.gov/adds/tafs/
 
KMTJ 222345Z 2300/2324 30006KT P6SM VCSH SCT025 BKN045 
     TEMPO 2300/2302 32012G25KT 5SM -SN BR BKN025 
     FM230200 30010KT P6SM VCSH SCT030 OVC045 
     FM230500 31005KT P6SM FEW020 BKN050 
     FM231200 19006KT P6SM FEW025 BKN050 
     FM231800 34004KT P6SM SCT060